Time;durP1;ratioP1;P1;durP2;ratioP2;P2;SDS_P1;SDS_P2;PMS_P1;PMS_P2;Temp;Humidity;BMP_temperature;BMP_pressure;BME280_temperature;BME280_humidity;BME280_pressure;Samples;Min_cycle;Max_cycle;Signal;HPM_P1;HPM_P2
2023/07/09 00:02:26;;;;;;;12.60;9.75;;;;;;;21.89;100.00;101525.06;5202883;28;20458;-65
2023/07/09 00:04:58;;;;;;;14.15;9.65;;;;;;;21.85;100.00;101522.88;5203615;28;20388;-65
2023/07/09 00:07:32;;;;;;;13.70;10.30;;;;;;;21.85;100.00;101525.59;5203973;28;20424;-65
2023/07/09 00:10:03;;;;;;;13.85;9.77;;;;;;;21.85;100.00;101531.03;5203286;28;20025;-65
2023/07/09 00:12:35;;;;;;;11.80;9.20;;;;;;;21.78;100.00;101521.88;5206791;28;20048;-65
2023/07/09 00:15:09;;;;;;;11.18;8.77;;;;;;;21.79;100.00;101526.31;5202001;28;20026;-65
2023/07/09 00:17:41;;;;;;;12.30;8.98;;;;;;;21.68;100.00;101524.78;5198775;28;20041;-65
2023/07/09 00:20:16;;;;;;;12.35;9.18;;;;;;;21.66;100.00;101543.13;5197875;28;20053;-65
2023/07/09 00:22:52;;;;;;;12.35;8.88;;;;;;;21.67;100.00;101536.66;5195289;28;20028;-65
2023/07/09 00:25:24;;;;;;;11.63;8.50;;;;;;;21.66;100.00;101540.41;5196558;28;20152;-65
2023/07/09 00:27:55;;;;;;;12.15;8.75;;;;;;;21.59;100.00;101536.69;5192263;28;20144;-65
2023/07/09 00:30:27;;;;;;;11.05;8.95;;;;;;;21.58;100.00;101538.56;5193274;28;20040;-65
2023/07/09 00:32:58;;;;;;;12.80;8.73;;;;;;;21.58;100.00;101540.44;5193638;28;20448;-65
2023/07/09 00:35:30;;;;;;;10.98;8.55;;;;;;;21.54;100.00;101539.94;5197053;28;20041;-65
2023/07/09 00:38:02;;;;;;;11.20;8.20;;;;;;;21.56;100.00;101546.03;5199424;28;20025;-65
2023/07/09 00:40:34;;;;;;;11.27;7.50;;;;;;;21.53;100.00;101551.81;5201726;28;20164;-65
2023/07/09 00:43:14;;;;;;;11.88;8.27;;;;;;;21.51;100.00;101546.53;5194392;28;20472;-65
2023/07/09 00:46:29;;;;;;;12.77;7.75;;;;;;;21.60;100.00;101549.25;5192682;28;20069;-65
2023/07/09 00:49:07;;;;;;;9.95;7.53;;;;;;;21.48;100.00;101546.06;5196972;28;20156;-65
2023/07/09 00:51:42;;;;;;;10.27;7.45;;;;;;;21.45;100.00;101557.25;5202335;28;20029;-65
2023/07/09 00:54:30;;;;;;;10.32;7.97;;;;;;;21.39;100.00;101547.06;5197896;28;20476;-65
2023/07/09 00:57:12;;;;;;;11.88;7.40;;;;;;;21.34;100.00;101551.13;5204689;28;20029;-65
2023/07/09 00:59:48;;;;;;;11.32;7.35;;;;;;;21.31;100.00;101556.06;5204552;28;20085;-65
2023/07/09 01:02:23;;;;;;;9.82;7.72;;;;;;;21.31;100.00;101556.06;5204982;28;20510;-65
2023/07/09 01:05:00;;;;;;;11.10;7.63;;;;;;;21.25;100.00;101565.72;5202692;28;20124;-65
2023/07/09 01:07:32;;;;;;;10.13;7.32;;;;;;;21.24;100.00;101550.44;5197358;28;20140;-65
2023/07/09 01:10:04;;;;;;;10.95;7.40;;;;;;;21.23;100.00;101556.91;5202068;28;20402;-65
2023/07/09 01:12:35;;;;;;;11.98;7.50;;;;;;;21.21;100.00;101550.81;5202840;28;20082;-65
2023/07/09 01:15:07;;;;;;;9.85;7.30;;;;;;;21.13;100.00;101546.22;5201737;28;21216;-65
2023/07/09 01:17:39;;;;;;;11.15;7.88;;;;;;;21.13;100.00;101539.94;5198622;28;20113;-65
2023/07/09 01:20:16;;;;;;;10.93;8.00;;;;;;;21.11;100.00;101550.97;5209528;28;20030;-65
2023/07/09 01:22:50;;;;;;;11.02;7.85;;;;;;;21.11;100.00;101540.13;5198254;28;20022;-65
2023/07/09 01:25:22;;;;;;;11.43;8.05;;;;;;;21.08;100.00;101543.16;5203866;28;20100;-65
2023/07/09 01:27:54;;;;;;;11.43;8.05;;;;;;;21.08;100.00;101550.47;5200689;28;20152;-65
2023/07/09 01:30:37;;;;;;;11.82;8.35;;;;;;;21.06;100.00;101550.63;5205122;28;20034;-65
2023/07/09 01:33:09;;;;;;;10.77;8.13;;;;;;;21.03;100.00;101552.84;5216171;28;20036;-65
2023/07/09 01:35:42;;;;;;;11.65;7.93;;;;;;;20.99;100.00;101552.31;5208332;28;20109;-65
2023/07/09 01:38:14;;;;;;;10.77;8.05;;;;;;;20.95;100.00;101559.09;5197661;28;20054;-65
2023/07/09 01:40:46;;;;;;;11.82;7.90;;;;;;;20.93;100.00;101559.25;5202199;28;20405;-65
2023/07/09 01:43:18;;;;;;;11.35;7.82;;;;;;;20.95;100.00;101557.22;5204596;28;20436;-65
2023/07/09 01:45:51;;;;;;;12.15;8.60;;;;;;;20.93;100.00;101569.28;5207137;28;20044;-65
2023/07/09 01:48:24;;;;;;;11.35;7.68;;;;;;;20.92;100.00;101564.84;5196516;28;20481;-65
2023/07/09 01:50:55;;;;;;;13.73;8.73;;;;;;;20.93;100.00;101564.69;5207571;28;20061;-65
2023/07/09 01:53:31;;;;;;;10.13;8.25;;;;;;;20.91;100.00;101565.88;5214061;28;20433;-65
2023/07/09 01:56:03;;;;;;;10.68;7.78;;;;;;;20.87;100.00;101573.50;5199969;28;20048;-65
2023/07/09 01:58:34;;;;;;;11.90;9.00;;;;;;;20.86;100.00;101573.66;5198895;28;20056;-65
2023/07/09 02:01:06;;;;;;;12.02;8.73;;;;;;;20.89;100.00;101571.47;5200809;28;20394;-65
2023/07/09 02:03:37;;;;;;;11.23;8.38;;;;;;;21.02;100.00;101575.56;5199132;28;20057;-65
2023/07/09 02:06:10;;;;;;;12.43;8.82;;;;;;;20.93;100.00;101570.13;5198973;28;20037;-65
2023/07/09 02:08:42;;;;;;;11.52;8.68;;;;;;;21.05;100.00;101581.47;5193164;28;20057;-66
2023/07/09 02:11:13;;;;;;;12.10;8.68;;;;;;;21.13;100.00;101576.09;5203975;28;20026;-65
2023/07/09 02:13:47;;;;;;;11.13;8.13;;;;;;;21.17;100.00;101587.44;5203367;28;20320;-65
2023/07/09 02:16:19;;;;;;;12.35;8.70;;;;;;;20.92;100.00;101590.13;5194199;28;20528;-65
2023/07/09 02:18:50;;;;;;;14.05;8.90;;;;;;;20.94;100.00;101582.69;5209467;28;20032;-65
2023/07/09 02:21:21;;;;;;;10.55;8.32;;;;;;;21.02;100.00;101579.13;5211434;28;20046;-65
2023/07/09 02:23:53;;;;;;;13.00;8.52;;;;;;;21.03;100.00;101577.25;5203227;28;20034;-65
2023/07/09 02:26:24;;;;;;;10.90;8.82;;;;;;;20.91;100.00;101580.28;5196783;28;20109;-65
2023/07/09 02:28:56;;;;;;;12.15;8.93;;;;;;;20.81;100.00;101574.19;5201697;28;20037;-65
2023/07/09 02:31:29;;;;;;;11.00;8.60;;;;;;;21.01;100.00;101576.56;5201476;28;20473;-65
2023/07/09 02:34:03;;;;;;;12.55;9.23;;;;;;;20.82;100.00;101580.44;5191489;28;20068;-65
2023/07/09 02:36:34;;;;;;;11.27;8.90;;;;;;;20.81;100.00;101573.34;5191531;28;20172;-65
2023/07/09 02:39:06;;;;;;;12.98;9.63;;;;;;;20.80;100.00;101575.19;5192701;28;20453;-65
2023/07/09 02:41:37;;;;;;;13.48;9.13;;;;;;;20.84;100.00;101581.97;5193841;28;20052;-65
2023/07/09 02:44:09;;;;;;;12.85;9.32;;;;;;;20.91;100.00;101579.44;5192976;28;20037;-65
2023/07/09 02:46:40;;;;;;;11.65;9.02;;;;;;;20.87;100.00;101580.81;5191521;28;20989;-65
2023/07/09 02:49:13;;;;;;;13.02;9.40;;;;;;;20.84;100.00;101576.53;5194485;28;20029;-65
2023/07/09 02:51:48;;;;;;;12.60;9.63;;;;;;;20.84;100.00;101587.38;5191972;28;20026;-65
2023/07/09 02:54:19;;;;;;;12.10;9.23;;;;;;;20.80;100.00;101586.03;5190586;28;20086;-65
2023/07/09 02:56:51;;;;;;;13.07;10.15;;;;;;;20.77;100.00;101583.66;5188101;28;20034;-65
2023/07/09 02:59:22;;;;;;;12.18;9.50;;;;;;;20.73;100.00;101585.03;5190378;28;20688;-65
2023/07/09 03:01:54;;;;;;;13.98;9.63;;;;;;;20.73;100.00;101579.59;5190930;28;20030;-65
2023/07/09 03:04:25;;;;;;;13.60;10.35;;;;;;;20.76;100.00;101577.38;5191143;28;20041;-65
2023/07/09 03:06:57;;;;;;;13.07;10.63;;;;;;;20.74;100.00;101578.56;5190586;28;20386;-65
2023/07/09 03:09:29;;;;;;;12.65;10.30;;;;;;;20.73;100.00;101577.72;5192664;28;20062;-65
2023/07/09 03:12:00;;;;;;;11.57;10.32;;;;;;;20.70;100.00;101575.34;5191306;28;20030;-65
2023/07/09 03:14:32;;;;;;;14.15;9.90;;;;;;;20.73;100.00;101574.16;5192058;28;20069;-65
2023/07/09 03:17:04;;;;;;;12.20;9.70;;;;;;;20.71;100.00;101577.03;5194916;28;20520;-65
2023/07/09 03:19:35;;;;;;;14.32;10.32;;;;;;;20.74;100.00;101579.41;5196066;28;20037;-65
2023/07/09 03:22:06;;;;;;;12.15;9.88;;;;;;;20.70;100.00;101579.91;5197996;28;20123;-65
2023/07/09 03:24:38;;;;;;;12.95;10.88;;;;;;;20.73;100.00;101579.59;5195323;28;20026;-65
2023/07/09 03:27:09;;;;;;;15.23;11.25;;;;;;;20.66;100.00;101579.41;5197194;28;20582;-65
2023/07/09 03:29:40;;;;;;;13.27;10.80;;;;;;;20.66;100.00;101579.41;5196722;28;20116;-65
2023/07/09 03:32:12;;;;;;;15.18;10.98;;;;;;;20.69;100.00;101575.50;5198692;28;20905;-65
2023/07/09 03:34:43;;;;;;;13.60;11.15;;;;;;;20.66;100.00;101578.56;5199023;28;20120;-65
2023/07/09 03:37:15;;;;;;;13.65;10.75;;;;;;;20.58;100.00;101576.63;5206932;28;20037;-65
2023/07/09 03:39:46;;;;;;;14.82;11.57;;;;;;;20.51;100.00;101578.31;5210221;28;20033;-65
2023/07/09 03:42:17;;;;;;;13.15;11.27;;;;;;;20.59;100.00;101577.47;5202556;28;20429;-65
2023/07/09 03:44:49;;;;;;;13.82;10.95;;;;;;;20.59;100.00;101575.59;5198182;28;20045;-65
2023/07/09 03:47:20;;;;;;;11.95;10.60;;;;;;;20.54;100.00;101580.69;5198063;28;20034;-65
2023/07/09 03:49:52;;;;;;;16.05;11.57;;;;;;;20.65;100.00;101580.44;5203169;28;20025;-65
2023/07/09 03:52:23;;;;;;;13.82;11.15;;;;;;;20.51;100.00;101576.44;5203851;28;20057;-65
2023/07/09 03:54:56;;;;;;;14.82;10.82;;;;;;;20.50;100.00;101569.34;5199936;28;20017;-63
2023/07/09 03:57:27;;;;;;;12.18;10.52;;;;;;;20.55;100.00;101574.25;5200654;28;20026;-63
2023/07/09 03:59:59;;;;;;;14.52;11.55;;;;;;;20.53;100.00;101578.97;5204489;28;20048;-63
2023/07/09 04:02:31;;;;;;;13.55;10.98;;;;;;;20.47;100.00;101576.94;5202416;28;20151;-63
2023/07/09 04:05:03;;;;;;;14.18;11.30;;;;;;;20.52;100.00;101580.00;5202517;28;20112;-65
2023/07/09 04:07:35;;;;;;;14.95;10.80;;;;;;;20.42;100.00;101580.13;5200241;28;20440;-65
2023/07/09 04:10:06;;;;;;;15.70;11.05;;;;;;;20.45;100.00;101568.97;5200418;28;20571;-65
2023/07/09 04:12:38;;;;;;;14.00;11.70;;;;;;;20.49;100.00;101578.47;5201033;28;20040;-65
2023/07/09 04:15:12;;;;;;;15.63;11.23;;;;;;;20.48;100.00;101570.50;5206072;28;20123;-65
2023/07/09 04:17:43;;;;;;;16.05;11.27;;;;;;;20.46;100.00;101576.09;5201240;28;20034;-65
2023/07/09 04:20:15;;;;;;;16.05;11.55;;;;;;;20.46;100.00;101578.81;5202255;28;20029;-65
2023/07/09 04:22:47;;;;;;;14.40;11.00;;;;;;;20.51;100.00;101584.56;5205600;28;20499;-65
2023/07/09 04:25:18;;;;;;;14.45;11.52;;;;;;;20.71;100.00;101590.59;5205940;28;20423;-65
2023/07/09 04:27:50;;;;;;;13.65;11.32;;;;;;;20.68;100.00;101587.38;5201609;28;20096;-65
2023/07/09 04:30:21;;;;;;;14.45;11.27;;;;;;;20.72;100.00;101588.72;5201019;28;20044;-65
2023/07/09 04:32:53;;;;;;;13.65;11.18;;;;;;;20.78;100.00;101588.06;5203690;28;20084;-65
2023/07/09 04:35:24;;;;;;;15.32;12.40;;;;;;;20.78;100.00;101577.22;5209516;28;20030;-65
2023/07/09 04:37:56;;;;;;;12.88;11.30;;;;;;;20.91;100.00;101582.16;5203887;28;20034;-65
2023/07/09 04:40:27;;;;;;;15.68;12.60;;;;;;;20.74;100.00;101589.41;5202154;28;20142;-65
2023/07/09 04:42:59;;;;;;;15.55;12.65;;;;;;;20.81;100.00;101579.59;5206561;28;20456;-65
2023/07/09 04:45:30;;;;;;;16.10;13.38;;;;;;;20.95;100.00;101578.94;5200706;28;20026;-65
2023/07/09 04:48:02;;;;;;;16.50;13.55;;;;;;;21.02;100.00;101578.28;5198678;28;20038;-65
2023/07/09 04:50:34;;;;;;;15.25;12.63;;;;;;;20.97;100.00;101580.63;5199850;28;20089;-65
2023/07/09 04:53:05;;;;;;;15.25;12.93;;;;;;;21.07;100.00;101578.59;5200639;28;20034;-65
2023/07/09 04:55:36;;;;;;;17.58;13.32;;;;;;;21.12;100.00;101577.09;5202805;28;20092;-65
2023/07/09 04:58:08;;;;;;;15.60;12.82;;;;;;;21.11;100.00;101579.97;5205992;28;20400;-65
2023/07/09 05:00:39;;;;;;;16.70;12.60;;;;;;;21.13;100.00;101580.63;5200453;28;20034;-65
2023/07/09 05:03:11;;;;;;;16.50;12.68;;;;;;;21.32;100.00;101574.03;5203779;28;20417;-65
2023/07/09 05:05:44;;;;;;;16.17;12.95;;;;;;;21.33;100.00;101575.72;5199715;28;20109;-65
2023/07/09 05:08:16;;;;;;;14.27;11.20;;;;;;;21.35;100.00;101574.53;5199354;28;20049;-65
2023/07/09 05:10:51;;;;;;;15.85;11.93;;;;;;;21.52;100.00;101577.28;5202332;28;20042;-65
2023/07/09 05:13:23;;;;;;;14.45;11.60;;;;;;;21.44;100.00;101582.69;5199921;28;20029;-66
2023/07/09 05:15:55;;;;;;;17.58;12.38;;;;;;;21.49;100.00;101578.44;5200222;28;20026;-65
2023/07/09 05:18:26;;;;;;;17.80;11.73;;;;;;;21.78;100.00;101576.22;5200934;28;20125;-65
2023/07/09 05:20:58;;;;;;;17.15;11.35;;;;;;;21.80;100.00;101577.72;5199917;28;20049;-65
2023/07/09 05:23:29;;;;;;;14.38;10.68;;;;;;;21.76;100.00;101581.81;5200659;28;20290;-65
2023/07/09 05:26:02;;;;;;;15.02;11.50;;;;;;;21.76;100.00;101575.53;5198618;28;20026;-65
2023/07/09 05:28:34;;;;;;;16.27;11.47;;;;;;;21.88;100.00;101580.44;5199791;28;20029;-65
2023/07/09 05:31:06;;;;;;;13.43;10.80;;;;;;;21.87;100.00;101575.16;5198853;28;20771;-65
2023/07/09 05:33:37;;;;;;;13.15;10.95;;;;;;;21.91;100.00;101579.22;5203369;28;20022;-65
2023/07/09 05:36:15;;;;;;;13.05;11.50;;;;;;;21.86;100.00;101574.34;5203891;28;20108;-65
2023/07/09 05:38:47;;;;;;;13.57;10.68;;;;;;;22.02;100.00;101581.56;5204083;28;20026;-65
2023/07/09 05:41:18;;;;;;;11.40;10.18;;;;;;;22.06;100.00;101579.38;5202023;28;20037;-65
2023/07/09 05:43:51;;;;;;;15.80;11.20;;;;;;;22.15;100.00;101582.88;5197705;28;20073;-65
2023/07/09 05:46:23;;;;;;;15.00;11.07;;;;;;;22.23;100.00;101574.72;5200851;28;20037;-65
2023/07/09 05:48:55;;;;;;;14.88;10.88;;;;;;;22.42;100.00;101579.75;5201086;28;20028;-65
2023/07/09 05:51:26;;;;;;;14.32;9.98;;;;;;;22.38;100.00;101581.13;5202719;28;20025;-65
2023/07/09 05:53:58;;;;;;;15.70;10.48;;;;;;;22.43;100.00;101580.59;5203248;28;20060;-65
2023/07/09 05:56:29;;;;;;;14.32;9.82;;;;;;;22.47;100.00;101576.47;5203063;28;20037;-65
2023/07/09 05:59:01;;;;;;;15.32;10.18;;;;;;;22.64;100.00;101585.41;5203795;28;20875;-65
2023/07/09 06:01:33;;;;;;;12.93;9.60;;;;;;;22.77;100.00;101579.38;5200337;28;20123;-65
2023/07/09 06:04:04;;;;;;;13.07;9.20;;;;;;;22.84;100.00;101575.75;5203456;28;20034;-65
2023/07/09 06:06:35;;;;;;;12.77;9.00;;;;;;;22.95;100.00;101577.19;5203431;28;20535;-65
2023/07/09 06:09:08;;;;;;;13.05;8.73;;;;;;;23.00;100.00;101585.69;5196898;28;20147;-65
2023/07/09 06:11:39;;;;;;;14.30;8.90;;;;;;;23.05;100.00;101572.41;5203534;28;20092;-65
2023/07/09 06:14:11;;;;;;;13.20;8.77;;;;;;;23.28;100.00;101571.56;5197177;28;20558;-65
2023/07/09 06:16:43;;;;;;;13.70;8.60;;;;;;;23.25;100.00;101577.34;5199640;28;20030;-65
2023/07/09 06:19:15;;;;;;;15.25;8.55;;;;;;;23.34;100.00;101578.13;5198265;28;20476;-65
2023/07/09 06:21:46;;;;;;;17.02;8.55;;;;;;;23.43;100.00;101575.16;5200895;28;20033;-65
2023/07/09 06:24:18;;;;;;;12.13;8.27;;;;;;;23.41;100.00;101570.91;5194735;28;20026;-65
2023/07/09 06:26:49;;;;;;;13.38;8.57;;;;;;;23.60;100.00;101577.72;5199627;28;20068;-65
2023/07/09 06:29:20;;;;;;;10.55;7.90;;;;;;;23.71;100.00;101573.69;5196859;28;20362;-65
2023/07/09 06:31:52;;;;;;;12.35;8.75;;;;;;;23.74;100.00;101579.63;5198732;28;20030;-66
2023/07/09 06:34:23;;;;;;;11.60;7.78;;;;;;;23.83;100.00;101574.94;5196724;28;20444;-65
2023/07/09 06:36:56;;;;;;;9.65;7.57;;;;;;;23.97;100.00;101565.94;5201173;28;20045;-65
2023/07/09 06:39:27;;;;;;;12.57;7.40;;;;;;;24.04;100.00;101561.41;5200085;28;20040;-65
2023/07/09 06:41:59;;;;;;;10.45;7.47;;;;;;;24.24;100.00;101578.03;5198092;28;20295;-65
2023/07/09 06:44:30;;;;;;;10.68;7.65;;;;;;;24.43;100.00;101575.72;5199319;28;20788;-65
2023/07/09 06:47:02;;;;;;;12.20;7.65;;;;;;;24.41;100.00;101566.91;5198904;28;20408;-65
2023/07/09 06:49:33;;;;;;;12.85;8.00;;;;;;;24.43;100.00;101571.16;5197910;28;20030;-65
2023/07/09 06:52:05;;;;;;;10.20;7.22;;;;;;;24.71;100.00;101570.44;5195782;28;20030;-65
2023/07/09 06:54:37;;;;;;;11.85;7.68;;;;;;;24.72;100.00;101574.00;5198655;28;20034;-65
2023/07/09 06:57:08;;;;;;;9.85;6.78;;;;;;;24.87;100.00;101576.69;5198026;28;20066;-65
2023/07/09 06:59:39;;;;;;;12.70;7.55;;;;;;;25.01;100.00;101570.31;5194611;28;20030;-66
2023/07/09 07:02:11;;;;;;;9.68;7.15;;;;;;;25.02;100.00;101578.28;5199757;28;20053;-65
2023/07/09 07:04:42;;;;;;;10.13;6.95;;;;;;;25.32;100.00;101575.47;5195137;28;20069;-65
2023/07/09 07:07:14;;;;;;;8.13;6.45;;;;;;;25.42;100.00;101575.97;5198484;28;20046;-73
2023/07/09 07:09:45;;;;;;;10.55;7.25;;;;;;;25.57;100.00;101572.28;5195454;28;20396;-75
2023/07/09 07:12:25;;;;;;;8.45;5.88;;;;;;;25.61;100.00;101579.88;5195672;28;20542;-74
2023/07/09 07:14:56;;;;;;;10.25;6.68;;;;;;;25.84;100.00;101578.78;5197603;28;20022;-74
2023/07/09 07:17:27;;;;;;;10.45;6.38;;;;;;;25.93;100.00;101584.97;5204105;28;20040;-74
2023/07/09 07:19:59;;;;;;;11.23;6.60;;;;;;;25.97;100.00;101584.38;5198251;28;20038;-74
2023/07/09 07:22:30;;;;;;;10.82;6.60;;;;;;;26.13;100.00;101580.44;5198831;28;20033;-74
2023/07/09 07:25:03;;;;;;;8.60;6.55;;;;;;;26.17;100.00;101591.81;5198821;28;20045;-74
2023/07/09 07:27:36;;;;;;;8.90;6.15;;;;;;;26.17;100.00;101586.34;5198838;28;20042;-74
2023/07/09 07:30:11;;;;;;;11.65;6.32;;;;;;;26.31;100.00;101579.03;5197145;28;20027;-74
2023/07/09 07:32:45;;;;;;;11.20;6.97;;;;;;;26.44;100.00;101583.75;5197452;28;20033;-72
2023/07/09 07:35:18;;;;;;;8.90;6.10;;;;;;;26.47;100.00;101580.59;5202215;28;20021;-72
2023/07/09 07:37:49;;;;;;;8.80;5.60;;;;;;;26.52;100.00;101586.28;5211768;28;20033;-72
2023/07/09 07:40:21;;;;;;;9.70;5.93;;;;;;;26.69;100.00;101581.31;5201276;28;20034;-72
2023/07/09 07:42:52;;;;;;;10.02;6.10;;;;;;;26.71;100.00;101577.34;5199317;28;20535;-72
2023/07/09 07:45:24;;;;;;;10.50;5.78;;;;;;;26.76;100.00;101573.97;5204912;28;20336;-73
2023/07/09 07:47:55;;;;;;;8.07;5.25;;;;;;;26.91;100.00;101580.13;5204202;28;20029;-73
2023/07/09 07:50:26;;;;;;;10.02;5.88;;;;;;;26.92;100.00;101579.03;5207783;28;20476;-72
2023/07/09 07:52:58;;;;;;;9.95;5.95;;;;;;;27.24;100.00;101573.81;5208433;28;20021;-73
2023/07/09 07:55:30;;;;;;;8.07;5.55;;;;;;;27.35;100.00;101575.97;5207863;28;20517;-72
2023/07/09 07:58:03;;;;;;;9.02;5.95;;;;;;;27.48;100.00;101575.13;5208620;28;20575;-72
2023/07/09 08:00:35;;;;;;;8.73;5.55;;;;;;;27.44;100.00;101575.75;5211862;28;20527;-73
2023/07/09 08:03:06;;;;;;;9.95;6.32;;;;;;;27.53;100.00;101580.78;5206252;28;20026;-73
2023/07/09 08:05:38;;;;;;;8.38;5.93;;;;;;;27.47;100.00;101578.06;5206985;28;20030;-72
2023/07/09 08:08:10;;;;;;;9.32;5.80;;;;;;;27.49;100.00;101574.06;5209191;28;20065;-73
2023/07/09 08:10:42;;;;;;;8.85;6.05;;;;;;;27.52;100.00;101578.28;5204714;28;20503;-73
2023/07/09 08:13:13;;;;;;;9.65;5.93;;;;;;;27.62;100.00;101569.63;5210329;28;20029;-72
2023/07/09 08:15:46;;;;;;;8.63;6.28;;;;;;;27.74;100.00;101567.91;5211098;28;20025;-73
2023/07/09 08:18:17;;;;;;;8.30;6.30;;;;;;;27.77;100.00;101564.75;5214876;28;20073;-73
2023/07/09 08:20:49;;;;;;;7.65;5.82;;;;;;;27.84;100.00;101565.56;5209488;28;20017;-72
2023/07/09 08:23:20;;;;;;;9.25;6.40;;;;;;;28.00;100.00;101566.19;5210608;28;20508;-73
2023/07/09 08:25:53;;;;;;;10.07;5.60;;;;;;;27.91;100.00;101571.06;5210174;28;20395;-72
2023/07/09 08:28:25;;;;;;;8.60;5.72;;;;;;;27.98;100.00;101576.53;5212134;28;20373;-73
2023/07/09 08:30:57;;;;;;;9.95;6.15;;;;;;;27.95;100.00;101564.94;5206314;28;20441;-73
2023/07/09 08:33:28;;;;;;;7.63;5.70;;;;;;;28.02;100.00;101558.56;5207296;28;20065;-73
2023/07/09 08:36:00;;;;;;;10.55;6.10;;;;;;;28.01;100.00;101556.91;5213801;28;20033;-73
2023/07/09 08:38:31;;;;;;;8.18;5.85;;;;;;;28.15;100.00;101559.38;5206379;28;20688;-73
2023/07/09 08:41:05;;;;;;;11.95;6.25;;;;;;;28.42;100.00;101559.28;5200830;28;20022;-73
2023/07/09 08:43:52;;;;;;;9.05;6.95;;;;;;;28.60;100.00;101561.31;5205826;28;20433;-73
2023/07/09 08:46:49;;;;;;;9.43;7.00;;;;;;;28.66;100.00;101560.41;5215380;28;20530;-73
2023/07/09 08:49:31;;;;;;;8.90;6.43;;;;;;;28.50;100.00;101559.00;5209025;28;20050;-73
2023/07/09 08:52:09;;;;;;;9.23;6.80;;;;;;;28.59;100.00;101567.84;5209494;28;20033;-73
2023/07/09 08:54:42;;;;;;;7.93;6.15;;;;;;;28.61;100.00;101564.88;5201504;28;20106;-73
2023/07/09 08:57:31;;;;;;;9.30;6.47;;;;;;;28.72;100.00;101565.03;5207281;28;20029;-73
2023/07/09 09:00:14;;;;;;;10.18;7.05;;;;;;;28.69;100.00;101562.75;5208186;28;20038;-72
2023/07/09 09:02:49;;;;;;;9.55;6.68;;;;;;;28.88;100.00;101558.19;5208557;28;20384;-73
2023/07/09 09:05:22;;;;;;;8.43;6.50;;;;;;;29.02;100.00;101558.91;5206879;28;20034;-73
2023/07/09 09:08:00;;;;;;;10.25;6.53;;;;;;;28.96;100.00;101556.22;5208466;28;20148;-73
2023/07/09 09:10:52;;;;;;;9.38;6.72;;;;;;;28.98;100.00;101554.09;5213003;28;20026;-73
2023/07/09 09:13:27;;;;;;;9.63;6.43;;;;;;;28.98;100.00;101546.69;5206897;28;20057;-73
2023/07/09 09:16:06;;;;;;;10.25;7.00;;;;;;;29.04;100.00;101545.81;5204869;28;20388;-73
2023/07/09 09:18:42;;;;;;;11.70;6.72;;;;;;;29.05;100.00;101543.88;5212212;28;20033;-73
2023/07/09 09:21:29;;;;;;;10.95;6.78;;;;;;;29.23;100.00;101548.66;5211078;28;20031;-73
2023/07/09 09:24:27;;;;;;;11.73;6.47;;;;;;;29.41;100.00;101547.84;5207363;28;20026;-73
2023/07/09 09:26:59;;;;;;;10.07;6.20;;;;;;;29.70;100.00;101546.28;5211931;28;20041;-73
2023/07/09 09:29:31;;;;;;;9.80;6.10;;;;;;;29.58;100.00;101537.09;5209662;28;20030;-73
2023/07/09 09:32:18;;;;;;;9.60;6.47;;;;;;;29.61;100.00;101534.75;5207236;28;20044;-73
2023/07/09 09:34:49;;;;;;;10.05;5.88;;;;;;;29.63;100.00;101535.34;5207886;28;20145;-73
2023/07/09 09:37:31;;;;;;;8.38;5.40;;;;;;;29.81;100.00;101533.72;5212266;28;20021;-73
2023/07/09 09:40:03;;;;;;;8.25;6.47;;;;;;;29.77;100.00;101527.81;5201117;28;20065;-73
2023/07/09 09:42:34;;;;;;;11.02;5.88;;;;;;;29.72;100.00;101522.13;5213482;28;20021;-73
2023/07/09 09:45:13;;;;;;;7.28;5.38;;;;;;;29.79;100.00;101517.44;5207966;28;20034;-72
2023/07/09 09:47:46;;;;;;;8.90;5.15;;;;;;;29.95;100.00;101524.22;5202978;28;20041;-73
2023/07/09 09:50:22;;;;;;;9.88;5.82;;;;;;;29.95;100.00;101515.97;5202498;28;20040;-73
2023/07/09 09:52:54;;;;;;;7.85;5.22;;;;;;;29.95;100.00;101517.88;5210841;28;20033;-72
2023/07/09 09:55:29;;;;;;;9.35;5.38;;;;;;;29.98;100.00;101500.94;5209388;28;20017;-73
2023/07/09 09:58:02;;;;;;;9.57;5.40;;;;;;;30.08;100.00;101493.78;5198481;28;20046;-72
2023/07/09 10:00:33;;;;;;;9.00;4.93;;;;;;;30.17;100.00;101501.75;5198823;28;20040;-72
2023/07/09 10:03:08;;;;;;;7.50;5.28;;;;;;;30.29;100.00;101495.19;5207503;28;20033;-73
2023/07/09 10:05:47;;;;;;;8.18;5.80;;;;;;;30.28;100.00;101509.19;5209587;28;20354;-72
2023/07/09 10:08:33;;;;;;;6.57;5.53;;;;;;;30.47;100.00;101521.91;5205956;28;20049;-72
2023/07/09 10:11:16;;;;;;;8.00;5.75;;;;;;;30.72;100.00;101511.78;5198743;28;20116;-73
2023/07/09 10:13:51;;;;;;;6.90;5.28;;;;;;;30.55;100.00;101523.47;5194378;28;20033;-73
2023/07/09 10:16:35;;;;;;;8.10;5.57;;;;;;;30.64;100.00;101501.94;5206761;28;20087;-72
2023/07/09 10:19:30;;;;;;;11.13;5.70;;;;;;;30.68;100.00;101516.91;5200252;28;20026;-73
2023/07/09 10:22:18;;;;;;;9.68;6.15;;;;;;;30.77;100.00;101528.44;5204477;28;20033;-73
2023/07/09 10:25:06;;;;;;;8.93;5.22;;;;;;;30.95;100.00;101528.41;5194446;28;20074;-72
2023/07/09 10:27:53;;;;;;;8.30;5.78;;;;;;;30.93;100.00;101536.03;5196647;28;20045;-73
2023/07/09 10:30:43;;;;;;;10.88;5.80;;;;;;;30.93;100.00;101536.03;5197989;28;20461;-73
2023/07/09 10:33:27;;;;;;;9.88;6.28;;;;;;;31.10;100.00;101541.69;5197611;28;20026;-73
2023/07/09 10:36:16;;;;;;;9.70;6.05;;;;;;;31.15;100.00;101532.75;5201682;28;20060;-73
2023/07/09 10:38:59;;;;;;;8.80;5.45;;;;;;;31.15;100.00;101529.97;5195998;28;20057;-73
2023/07/09 10:41:31;;;;;;;8.60;5.60;;;;;;;31.17;100.00;101539.69;5201263;28;20041;-72
2023/07/09 10:44:14;;;;;;;7.20;5.07;;;;;;;31.26;100.00;101543.78;5200388;28;20045;-73
2023/07/09 10:46:50;;;;;;;9.45;5.28;;;;;;;31.25;100.00;101541.25;5195021;28;20431;-72
2023/07/09 10:49:26;;;;;;;8.55;5.38;;;;;;;31.35;100.00;101527.69;5193269;28;20032;-73
2023/07/09 10:52:12;;;;;;;7.43;4.80;;;;;;;31.55;100.00;101524.63;5204034;28;20488;-73
2023/07/09 10:55:04;;;;;;;8.32;5.00;;;;;;;31.60;100.00;101524.75;5201441;28;20030;-73
2023/07/09 10:57:48;;;;;;;6.90;5.22;;;;;;;31.61;100.00;101515.38;5201489;28;20088;-73
2023/07/09 11:00:23;;;;;;;9.52;5.00;;;;;;;31.64;100.00;101514.03;5214114;28;20104;-73
2023/07/09 11:03:02;;;;;;;9.23;5.20;;;;;;;31.71;100.00;101503.72;5206256;28;20028;-73
2023/07/09 11:05:33;;;;;;;7.55;5.30;;;;;;;31.71;100.00;101503.72;5198864;28;20556;-73
2023/07/09 11:08:19;;;;;;;9.38;4.90;;;;;;;31.83;100.00;101510.06;5195374;28;20057;-72
2023/07/09 11:10:56;;;;;;;8.13;4.97;;;;;;;31.83;100.00;101510.06;5202401;28;20037;-73
2023/07/09 11:13:36;;;;;;;7.63;5.13;;;;;;;31.93;100.00;101512.19;5204155;28;20372;-73
2023/07/09 11:16:14;;;;;;;7.90;4.97;;;;;;;31.95;100.00;101523.84;5203169;28;20082;-73
2023/07/09 11:18:56;;;;;;;10.20;5.32;;;;;;;32.02;100.00;101526.47;5209847;28;20525;-73
2023/07/09 11:21:27;;;;;;;7.40;5.25;;;;;;;32.09;100.00;101540.16;5201931;28;20035;-73
2023/07/09 11:24:00;;;;;;;9.57;5.50;;;;;;;32.13;100.00;101539.41;5207027;28;20042;-73
2023/07/09 11:26:34;;;;;;;7.95;5.10;;;;;;;32.23;100.00;101539.59;5201476;28;20030;-73
2023/07/09 11:29:08;;;;;;;10.57;5.50;;;;;;;32.30;100.00;101527.59;5202185;28;20695;-73
2023/07/09 11:31:44;;;;;;;7.90;5.22;;;;;;;32.32;100.00;101530.94;5191957;28;20034;-73
2023/07/09 11:34:19;;;;;;;9.98;4.70;;;;;;;32.30;100.00;101528.44;5198628;28;20050;-73
2023/07/09 11:36:57;;;;;;;7.82;4.93;;;;;;;32.36;100.00;101523.84;5208997;28;20507;-73
2023/07/09 11:39:41;;;;;;;8.35;5.15;;;;;;;32.33;100.00;101525.19;5204008;28;20030;-73
2023/07/09 11:42:28;;;;;;;9.38;5.05;;;;;;;32.47;100.00;101535.91;5209785;28;20030;-73